sensor_id;sensor_type;location;lat;lon;timestamp;P1;durP1;ratioP1;P2;durP2;ratioP2
49764;SDS011;35657;51.204;-4.130;2023-04-07T00:01:29;4.40;;;2.13;;
49764;SDS011;35657;51.204;-4.130;2023-04-07T00:03:55;4.20;;;2.03;;
49764;SDS011;35657;51.204;-4.130;2023-04-07T00:06:21;3.63;;;1.90;;
49764;SDS011;35657;51.204;-4.130;2023-04-07T00:08:46;3.25;;;1.42;;
49764;SDS011;35657;51.204;-4.130;2023-04-07T00:11:12;5.28;;;0.98;;
49764;SDS011;35657;51.204;-4.130;2023-04-07T00:13:38;4.43;;;1.17;;
49764;SDS011;35657;51.204;-4.130;2023-04-07T00:16:03;3.63;;;1.48;;
49764;SDS011;35657;51.204;-4.130;2023-04-07T00:18:29;5.22;;;1.48;;
49764;SDS011;35657;51.204;-4.130;2023-04-07T00:20:55;2.10;;;1.23;;
49764;SDS011;35657;51.204;-4.130;2023-04-07T00:23:21;2.47;;;1.10;;
49764;SDS011;35657;51.204;-4.130;2023-04-07T00:25:47;4.93;;;1.35;;
49764;SDS011;35657;51.204;-4.130;2023-04-07T00:28:13;3.78;;;0.90;;
49764;SDS011;35657;51.204;-4.130;2023-04-07T00:30:39;1.52;;;0.80;;
49764;SDS011;35657;51.204;-4.130;2023-04-07T00:33:05;5.95;;;0.98;;
49764;SDS011;35657;51.204;-4.130;2023-04-07T00:35:30;1.30;;;0.85;;
49764;SDS011;35657;51.204;-4.130;2023-04-07T00:37:56;3.05;;;1.13;;
49764;SDS011;35657;51.204;-4.130;2023-04-07T00:40:22;1.90;;;1.00;;
49764;SDS011;35657;51.204;-4.130;2023-04-07T00:42:48;1.88;;;0.88;;
49764;SDS011;35657;51.204;-4.130;2023-04-07T00:45:14;4.63;;;1.25;;
49764;SDS011;35657;51.204;-4.130;2023-04-07T00:47:40;4.15;;;1.40;;
49764;SDS011;35657;51.204;-4.130;2023-04-07T00:50:06;3.95;;;1.40;;
49764;SDS011;35657;51.204;-4.130;2023-04-07T00:52:32;1.55;;;0.82;;
49764;SDS011;35657;51.204;-4.130;2023-04-07T00:54:58;1.00;;;0.70;;
49764;SDS011;35657;51.204;-4.130;2023-04-07T00:57:24;1.75;;;1.08;;
49764;SDS011;35657;51.204;-4.130;2023-04-07T00:59:50;1.20;;;0.60;;
49764;SDS011;35657;51.204;-4.130;2023-04-07T01:02:20;3.45;;;0.82;;
49764;SDS011;35657;51.204;-4.130;2023-04-07T01:04:54;1.92;;;0.82;;
49764;SDS011;35657;51.204;-4.130;2023-04-07T01:13:29;4.70;;;1.02;;
49764;SDS011;35657;51.204;-4.130;2023-04-07T01:15:59;2.85;;;0.45;;
49764;SDS011;35657;51.204;-4.130;2023-04-07T01:18:30;1.63;;;0.80;;
49764;SDS011;35657;51.204;-4.130;2023-04-07T01:21:16;1.80;;;0.73;;
49764;SDS011;35657;51.204;-4.130;2023-04-07T01:26:36;2.63;;;0.75;;
49764;SDS011;35657;51.204;-4.130;2023-04-07T01:31:56;1.50;;;0.63;;
49764;SDS011;35657;51.204;-4.130;2023-04-07T01:34:24;1.67;;;0.50;;
49764;SDS011;35657;51.204;-4.130;2023-04-07T01:36:53;1.10;;;0.70;;
49764;SDS011;35657;51.204;-4.130;2023-04-07T01:39:21;4.57;;;0.50;;
49764;SDS011;35657;51.204;-4.130;2023-04-07T01:41:47;3.08;;;0.60;;
49764;SDS011;35657;51.204;-4.130;2023-04-07T01:44:17;4.00;;;1.13;;
49764;SDS011;35657;51.204;-4.130;2023-04-07T01:46:44;2.13;;;0.93;;
49764;SDS011;35657;51.204;-4.130;2023-04-07T01:49:10;4.53;;;0.80;;
49764;SDS011;35657;51.204;-4.130;2023-04-07T01:51:37;1.38;;;0.35;;
49764;SDS011;35657;51.204;-4.130;2023-04-07T01:54:04;0.75;;;0.60;;
49764;SDS011;35657;51.204;-4.130;2023-04-07T01:56:31;1.60;;;0.50;;
49764;SDS011;35657;51.204;-4.130;2023-04-07T01:58:57;1.35;;;0.60;;
49764;SDS011;35657;51.204;-4.130;2023-04-07T02:01:23;4.15;;;1.33;;
49764;SDS011;35657;51.204;-4.130;2023-04-07T02:06:46;1.40;;;0.60;;
49764;SDS011;35657;51.204;-4.130;2023-04-07T02:09:17;1.45;;;0.47;;
49764;SDS011;35657;51.204;-4.130;2023-04-07T02:11:45;4.80;;;0.88;;
49764;SDS011;35657;51.204;-4.130;2023-04-07T02:14:12;0.95;;;0.57;;
49764;SDS011;35657;51.204;-4.130;2023-04-07T02:16:40;2.63;;;0.50;;
49764;SDS011;35657;51.204;-4.130;2023-04-07T02:19:07;3.88;;;0.80;;
49764;SDS011;35657;51.204;-4.130;2023-04-07T02:21:33;1.02;;;0.60;;
49764;SDS011;35657;51.204;-4.130;2023-04-07T02:24:04;1.67;;;0.77;;
49764;SDS011;35657;51.204;-4.130;2023-04-07T02:26:34;1.52;;;0.52;;
49764;SDS011;35657;51.204;-4.130;2023-04-07T02:29:01;0.63;;;0.50;;
49764;SDS011;35657;51.204;-4.130;2023-04-07T02:31:27;2.45;;;0.63;;
49764;SDS011;35657;51.204;-4.130;2023-04-07T02:33:53;2.65;;;0.70;;
49764;SDS011;35657;51.204;-4.130;2023-04-07T02:36:18;1.20;;;0.50;;
49764;SDS011;35657;51.204;-4.130;2023-04-07T02:38:44;2.38;;;1.23;;
49764;SDS011;35657;51.204;-4.130;2023-04-07T02:41:10;2.78;;;0.80;;
49764;SDS011;35657;51.204;-4.130;2023-04-07T02:43:35;0.95;;;0.60;;
49764;SDS011;35657;51.204;-4.130;2023-04-07T02:46:01;3.53;;;0.60;;
49764;SDS011;35657;51.204;-4.130;2023-04-07T02:48:27;0.77;;;0.57;;
49764;SDS011;35657;51.204;-4.130;2023-04-07T02:50:52;6.60;;;0.95;;
49764;SDS011;35657;51.204;-4.130;2023-04-07T02:53:18;1.42;;;0.60;;
49764;SDS011;35657;51.204;-4.130;2023-04-07T02:55:44;2.67;;;0.70;;
49764;SDS011;35657;51.204;-4.130;2023-04-07T02:58:10;2.80;;;0.60;;
49764;SDS011;35657;51.204;-4.130;2023-04-07T03:00:35;4.75;;;0.85;;
49764;SDS011;35657;51.204;-4.130;2023-04-07T03:03:01;1.65;;;1.10;;
49764;SDS011;35657;51.204;-4.130;2023-04-07T03:05:27;1.48;;;0.70;;
49764;SDS011;35657;51.204;-4.130;2023-04-07T03:07:53;3.35;;;0.82;;
49764;SDS011;35657;51.204;-4.130;2023-04-07T03:10:18;2.67;;;0.68;;
49764;SDS011;35657;51.204;-4.130;2023-04-07T03:12:44;2.00;;;0.55;;
49764;SDS011;35657;51.204;-4.130;2023-04-07T03:15:10;2.17;;;0.60;;
49764;SDS011;35657;51.204;-4.130;2023-04-07T03:17:35;1.42;;;0.70;;
49764;SDS011;35657;51.204;-4.130;2023-04-07T03:20:01;1.00;;;0.52;;
49764;SDS011;35657;51.204;-4.130;2023-04-07T03:22:27;3.83;;;0.68;;
49764;SDS011;35657;51.204;-4.130;2023-04-07T03:24:53;0.90;;;0.60;;
49764;SDS011;35657;51.204;-4.130;2023-04-07T03:27:18;3.42;;;0.80;;
49764;SDS011;35657;51.204;-4.130;2023-04-07T03:29:44;4.57;;;0.85;;
49764;SDS011;35657;51.204;-4.130;2023-04-07T03:32:10;3.75;;;0.80;;
49764;SDS011;35657;51.204;-4.130;2023-04-07T03:34:36;1.42;;;0.70;;
49764;SDS011;35657;51.204;-4.130;2023-04-07T03:37:02;1.35;;;0.68;;
49764;SDS011;35657;51.204;-4.130;2023-04-07T03:39:28;3.25;;;1.13;;
49764;SDS011;35657;51.204;-4.130;2023-04-07T03:41:53;1.35;;;0.70;;
49764;SDS011;35657;51.204;-4.130;2023-04-07T03:44:20;0.95;;;0.60;;
49764;SDS011;35657;51.204;-4.130;2023-04-07T03:46:46;2.00;;;1.10;;
49764;SDS011;35657;51.204;-4.130;2023-04-07T03:49:14;1.52;;;0.60;;
49764;SDS011;35657;51.204;-4.130;2023-04-07T03:51:40;2.30;;;0.70;;
49764;SDS011;35657;51.204;-4.130;2023-04-07T03:54:06;3.10;;;0.65;;
49764;SDS011;35657;51.204;-4.130;2023-04-07T03:56:32;4.15;;;0.50;;
49764;SDS011;35657;51.204;-4.130;2023-04-07T03:58:57;1.50;;;0.63;;
49764;SDS011;35657;51.204;-4.130;2023-04-07T04:01:23;0.85;;;0.57;;
49764;SDS011;35657;51.204;-4.130;2023-04-07T04:03:49;2.00;;;0.60;;
49764;SDS011;35657;51.204;-4.130;2023-04-07T04:06:15;3.03;;;0.88;;
49764;SDS011;35657;51.204;-4.130;2023-04-07T04:08:41;1.38;;;0.80;;
49764;SDS011;35657;51.204;-4.130;2023-04-07T04:11:06;1.75;;;0.85;;
49764;SDS011;35657;51.204;-4.130;2023-04-07T04:13:32;1.27;;;0.55;;
49764;SDS011;35657;51.204;-4.130;2023-04-07T04:15:58;2.50;;;0.50;;
49764;SDS011;35657;51.204;-4.130;2023-04-07T04:18:23;0.80;;;0.40;;
49764;SDS011;35657;51.204;-4.130;2023-04-07T04:20:49;1.48;;;0.50;;
49764;SDS011;35657;51.204;-4.130;2023-04-07T04:23:15;3.15;;;0.98;;
49764;SDS011;35657;51.204;-4.130;2023-04-07T04:25:40;1.45;;;0.80;;
49764;SDS011;35657;51.204;-4.130;2023-04-07T04:28:06;0.80;;;0.70;;
49764;SDS011;35657;51.204;-4.130;2023-04-07T04:30:32;0.95;;;0.50;;
49764;SDS011;35657;51.204;-4.130;2023-04-07T04:32:57;3.17;;;1.27;;
49764;SDS011;35657;51.204;-4.130;2023-04-07T04:35:23;2.05;;;0.80;;
49764;SDS011;35657;51.204;-4.130;2023-04-07T04:37:50;2.75;;;0.82;;
49764;SDS011;35657;51.204;-4.130;2023-04-07T04:40:15;1.88;;;0.68;;
49764;SDS011;35657;51.204;-4.130;2023-04-07T04:42:41;1.13;;;0.80;;
49764;SDS011;35657;51.204;-4.130;2023-04-07T04:45:07;2.88;;;0.90;;
49764;SDS011;35657;51.204;-4.130;2023-04-07T04:47:33;0.98;;;0.73;;
49764;SDS011;35657;51.204;-4.130;2023-04-07T04:49:58;1.73;;;0.63;;
49764;SDS011;35657;51.204;-4.130;2023-04-07T04:52:24;1.55;;;0.77;;
49764;SDS011;35657;51.204;-4.130;2023-04-07T04:54:51;4.15;;;1.35;;
49764;SDS011;35657;51.204;-4.130;2023-04-07T04:57:18;1.20;;;0.60;;
49764;SDS011;35657;51.204;-4.130;2023-04-07T04:59:44;1.63;;;0.95;;
49764;SDS011;35657;51.204;-4.130;2023-04-07T05:02:10;3.13;;;0.63;;
49764;SDS011;35657;51.204;-4.130;2023-04-07T05:04:36;1.67;;;0.80;;
49764;SDS011;35657;51.204;-4.130;2023-04-07T05:07:02;5.43;;;2.00;;
49764;SDS011;35657;51.204;-4.130;2023-04-07T05:09:28;1.60;;;0.75;;
49764;SDS011;35657;51.204;-4.130;2023-04-07T05:11:54;1.02;;;0.70;;
49764;SDS011;35657;51.204;-4.130;2023-04-07T05:14:20;1.38;;;0.80;;
49764;SDS011;35657;51.204;-4.130;2023-04-07T05:16:45;1.42;;;0.75;;
49764;SDS011;35657;51.204;-4.130;2023-04-07T05:19:12;3.88;;;0.85;;
49764;SDS011;35657;51.204;-4.130;2023-04-07T05:21:37;3.53;;;1.00;;
49764;SDS011;35657;51.204;-4.130;2023-04-07T05:24:03;2.70;;;1.20;;
49764;SDS011;35657;51.204;-4.130;2023-04-07T05:26:29;2.42;;;1.15;;
49764;SDS011;35657;51.204;-4.130;2023-04-07T05:28:55;1.95;;;0.95;;
49764;SDS011;35657;51.204;-4.130;2023-04-07T05:31:20;1.20;;;0.70;;
49764;SDS011;35657;51.204;-4.130;2023-04-07T05:33:46;2.55;;;1.00;;
49764;SDS011;35657;51.204;-4.130;2023-04-07T05:36:12;1.95;;;1.00;;
49764;SDS011;35657;51.204;-4.130;2023-04-07T05:38:37;2.33;;;0.98;;
49764;SDS011;35657;51.204;-4.130;2023-04-07T05:41:03;1.40;;;0.93;;
49764;SDS011;35657;51.204;-4.130;2023-04-07T05:43:29;0.82;;;0.70;;
49764;SDS011;35657;51.204;-4.130;2023-04-07T05:45:55;3.75;;;1.05;;
49764;SDS011;35657;51.204;-4.130;2023-04-07T05:48:21;1.13;;;0.65;;
49764;SDS011;35657;51.204;-4.130;2023-04-07T05:50:46;1.60;;;1.00;;
49764;SDS011;35657;51.204;-4.130;2023-04-07T05:53:12;2.08;;;1.20;;
49764;SDS011;35657;51.204;-4.130;2023-04-07T05:55:40;1.75;;;1.10;;
49764;SDS011;35657;51.204;-4.130;2023-04-07T05:58:07;1.25;;;0.75;;
49764;SDS011;35657;51.204;-4.130;2023-04-07T06:00:32;2.03;;;1.13;;
49764;SDS011;35657;51.204;-4.130;2023-04-07T06:02:58;1.58;;;0.88;;
49764;SDS011;35657;51.204;-4.130;2023-04-07T06:05:24;1.90;;;1.02;;
49764;SDS011;35657;51.204;-4.130;2023-04-07T06:07:50;2.38;;;1.35;;
49764;SDS011;35657;51.204;-4.130;2023-04-07T06:10:15;2.40;;;1.10;;
49764;SDS011;35657;51.204;-4.130;2023-04-07T06:12:41;2.05;;;1.30;;
49764;SDS011;35657;51.204;-4.130;2023-04-07T06:15:07;2.03;;;1.10;;
49764;SDS011;35657;51.204;-4.130;2023-04-07T06:17:33;2.03;;;1.00;;
49764;SDS011;35657;51.204;-4.130;2023-04-07T06:19:58;4.22;;;2.60;;
49764;SDS011;35657;51.204;-4.130;2023-04-07T06:22:24;2.25;;;1.33;;
49764;SDS011;35657;51.204;-4.130;2023-04-07T06:24:50;2.28;;;1.33;;
49764;SDS011;35657;51.204;-4.130;2023-04-07T06:27:16;2.40;;;0.90;;
49764;SDS011;35657;51.204;-4.130;2023-04-07T06:29:43;1.30;;;0.70;;
49764;SDS011;35657;51.204;-4.130;2023-04-07T06:32:08;1.33;;;0.88;;
49764;SDS011;35657;51.204;-4.130;2023-04-07T06:34:34;1.67;;;1.08;;
49764;SDS011;35657;51.204;-4.130;2023-04-07T06:37:00;1.83;;;1.10;;
49764;SDS011;35657;51.204;-4.130;2023-04-07T06:39:26;2.60;;;0.75;;
49764;SDS011;35657;51.204;-4.130;2023-04-07T06:41:52;1.75;;;0.90;;
49764;SDS011;35657;51.204;-4.130;2023-04-07T06:44:18;2.65;;;1.40;;
49764;SDS011;35657;51.204;-4.130;2023-04-07T06:46:43;1.45;;;0.82;;
49764;SDS011;35657;51.204;-4.130;2023-04-07T06:49:11;1.70;;;1.15;;
49764;SDS011;35657;51.204;-4.130;2023-04-07T06:51:37;2.00;;;1.17;;
49764;SDS011;35657;51.204;-4.130;2023-04-07T06:54:02;9.07;;;1.63;;
49764;SDS011;35657;51.204;-4.130;2023-04-07T06:56:29;3.00;;;1.45;;
49764;SDS011;35657;51.204;-4.130;2023-04-07T06:58:55;5.63;;;2.00;;
49764;SDS011;35657;51.204;-4.130;2023-04-07T07:01:20;2.58;;;1.25;;
49764;SDS011;35657;51.204;-4.130;2023-04-07T07:03:46;7.07;;;1.88;;
49764;SDS011;35657;51.204;-4.130;2023-04-07T07:06:12;5.47;;;2.00;;
49764;SDS011;35657;51.204;-4.130;2023-04-07T07:08:38;5.72;;;3.75;;
49764;SDS011;35657;51.204;-4.130;2023-04-07T07:11:04;6.68;;;2.58;;
49764;SDS011;35657;51.204;-4.130;2023-04-07T07:13:29;6.82;;;3.53;;
49764;SDS011;35657;51.204;-4.130;2023-04-07T07:15:55;13.20;;;5.13;;
49764;SDS011;35657;51.204;-4.130;2023-04-07T07:18:21;10.90;;;4.78;;
49764;SDS011;35657;51.204;-4.130;2023-04-07T07:20:46;12.00;;;5.75;;
49764;SDS011;35657;51.204;-4.130;2023-04-07T07:23:12;10.98;;;5.78;;
49764;SDS011;35657;51.204;-4.130;2023-04-07T07:25:38;9.93;;;4.60;;
49764;SDS011;35657;51.204;-4.130;2023-04-07T07:28:03;7.82;;;3.05;;
49764;SDS011;35657;51.204;-4.130;2023-04-07T07:30:29;10.52;;;4.40;;
49764;SDS011;35657;51.204;-4.130;2023-04-07T07:32:55;8.13;;;3.60;;
49764;SDS011;35657;51.204;-4.130;2023-04-07T07:35:21;8.45;;;3.70;;
49764;SDS011;35657;51.204;-4.130;2023-04-07T07:37:49;7.57;;;3.40;;
49764;SDS011;35657;51.204;-4.130;2023-04-07T07:40:15;7.22;;;3.90;;
49764;SDS011;35657;51.204;-4.130;2023-04-07T07:42:41;9.80;;;3.80;;
49764;SDS011;35657;51.204;-4.130;2023-04-07T07:45:07;6.93;;;3.63;;
49764;SDS011;35657;51.204;-4.130;2023-04-07T07:47:33;28.08;;;4.15;;
49764;SDS011;35657;51.204;-4.130;2023-04-07T07:50:01;4.65;;;2.78;;
49764;SDS011;35657;51.204;-4.130;2023-04-07T07:52:28;7.82;;;2.50;;
49764;SDS011;35657;51.204;-4.130;2023-04-07T07:54:53;4.28;;;2.70;;
49764;SDS011;35657;51.204;-4.130;2023-04-07T07:57:19;5.32;;;1.88;;
49764;SDS011;35657;51.204;-4.130;2023-04-07T07:59:45;5.15;;;1.88;;
49764;SDS011;35657;51.204;-4.130;2023-04-07T08:02:11;8.70;;;2.08;;
49764;SDS011;35657;51.204;-4.130;2023-04-07T08:04:37;2.63;;;1.70;;
49764;SDS011;35657;51.204;-4.130;2023-04-07T08:07:03;6.07;;;2.47;;
49764;SDS011;35657;51.204;-4.130;2023-04-07T08:09:29;6.20;;;2.22;;
49764;SDS011;35657;51.204;-4.130;2023-04-07T08:11:56;4.38;;;1.92;;
49764;SDS011;35657;51.204;-4.130;2023-04-07T08:14:22;5.32;;;1.75;;
49764;SDS011;35657;51.204;-4.130;2023-04-07T08:16:48;3.08;;;1.85;;
49764;SDS011;35657;51.204;-4.130;2023-04-07T08:19:13;6.32;;;2.33;;
49764;SDS011;35657;51.204;-4.130;2023-04-07T08:21:39;18.75;;;3.17;;
49764;SDS011;35657;51.204;-4.130;2023-04-07T08:24:05;9.55;;;2.28;;
49764;SDS011;35657;51.204;-4.130;2023-04-07T08:26:31;8.15;;;2.10;;
49764;SDS011;35657;51.204;-4.130;2023-04-07T08:28:57;4.65;;;2.42;;
49764;SDS011;35657;51.204;-4.130;2023-04-07T08:31:23;8.00;;;2.55;;
49764;SDS011;35657;51.204;-4.130;2023-04-07T08:33:49;7.63;;;3.55;;
49764;SDS011;35657;51.204;-4.130;2023-04-07T08:36:21;9.48;;;2.30;;
49764;SDS011;35657;51.204;-4.130;2023-04-07T08:38:48;6.93;;;2.40;;
49764;SDS011;35657;51.204;-4.130;2023-04-07T08:41:16;8.70;;;2.50;;
49764;SDS011;35657;51.204;-4.130;2023-04-07T08:43:44;12.00;;;3.15;;
49764;SDS011;35657;51.204;-4.130;2023-04-07T08:46:13;7.18;;;2.10;;
49764;SDS011;35657;51.204;-4.130;2023-04-07T08:48:39;4.43;;;2.05;;
49764;SDS011;35657;51.204;-4.130;2023-04-07T08:51:08;7.30;;;2.63;;
49764;SDS011;35657;51.204;-4.130;2023-04-07T08:53:42;9.02;;;2.67;;
49764;SDS011;35657;51.204;-4.130;2023-04-07T08:56:16;4.93;;;2.08;;
49764;SDS011;35657;51.204;-4.130;2023-04-07T08:58:42;11.93;;;2.63;;
49764;SDS011;35657;51.204;-4.130;2023-04-07T09:01:09;8.10;;;2.50;;
49764;SDS011;35657;51.204;-4.130;2023-04-07T09:03:37;6.15;;;2.25;;
49764;SDS011;35657;51.204;-4.130;2023-04-07T09:06:03;8.13;;;2.88;;
49764;SDS011;35657;51.204;-4.130;2023-04-07T09:08:29;8.07;;;2.20;;
49764;SDS011;35657;51.204;-4.130;2023-04-07T09:10:55;7.00;;;1.92;;
49764;SDS011;35657;51.204;-4.130;2023-04-07T09:13:23;6.78;;;2.05;;
49764;SDS011;35657;51.204;-4.130;2023-04-07T09:15:49;6.90;;;2.00;;
49764;SDS011;35657;51.204;-4.130;2023-04-07T09:18:15;10.57;;;5.10;;
49764;SDS011;35657;51.204;-4.130;2023-04-07T09:21:00;4.68;;;1.85;;
49764;SDS011;35657;51.204;-4.130;2023-04-07T09:23:34;4.95;;;1.70;;
49764;SDS011;35657;51.204;-4.130;2023-04-07T09:31:47;6.85;;;2.05;;
49764;SDS011;35657;51.204;-4.130;2023-04-07T09:34:28;4.60;;;2.22;;
49764;SDS011;35657;51.204;-4.130;2023-04-07T09:36:58;5.43;;;2.20;;
49764;SDS011;35657;51.204;-4.130;2023-04-07T09:39:24;13.10;;;2.50;;
49764;SDS011;35657;51.204;-4.130;2023-04-07T09:41:50;8.55;;;2.03;;
49764;SDS011;35657;51.204;-4.130;2023-04-07T09:44:17;4.60;;;1.92;;
49764;SDS011;35657;51.204;-4.130;2023-04-07T09:46:53;9.45;;;1.70;;
49764;SDS011;35657;51.204;-4.130;2023-04-07T09:49:21;8.93;;;2.20;;
49764;SDS011;35657;51.204;-4.130;2023-04-07T09:51:57;11.93;;;2.22;;
49764;SDS011;35657;51.204;-4.130;2023-04-07T09:57:02;5.82;;;1.70;;
49764;SDS011;35657;51.204;-4.130;2023-04-07T09:59:30;10.13;;;2.03;;
49764;SDS011;35657;51.204;-4.130;2023-04-07T10:01:56;5.47;;;1.50;;
49764;SDS011;35657;51.204;-4.130;2023-04-07T10:04:23;5.40;;;1.50;;
49764;SDS011;35657;51.204;-4.130;2023-04-07T10:06:51;6.65;;;1.83;;
49764;SDS011;35657;51.204;-4.130;2023-04-07T10:09:24;3.22;;;1.40;;
49764;SDS011;35657;51.204;-4.130;2023-04-07T10:11:52;7.70;;;2.00;;
49764;SDS011;35657;51.204;-4.130;2023-04-07T10:14:19;2.67;;;1.73;;
49764;SDS011;35657;51.204;-4.130;2023-04-07T10:16:46;9.23;;;1.70;;
49764;SDS011;35657;51.204;-4.130;2023-04-07T10:19:13;12.00;;;2.17;;
49764;SDS011;35657;51.204;-4.130;2023-04-07T10:21:40;7.20;;;1.48;;
49764;SDS011;35657;51.204;-4.130;2023-04-07T10:29:36;3.65;;;1.42;;
49764;SDS011;35657;51.204;-4.130;2023-04-07T10:32:06;10.43;;;1.63;;
49764;SDS011;35657;51.204;-4.130;2023-04-07T10:37:19;3.42;;;2.20;;
49764;SDS011;35657;51.204;-4.130;2023-04-07T10:39:50;5.60;;;1.63;;
49764;SDS011;35657;51.204;-4.130;2023-04-07T10:45:05;6.70;;;2.38;;
49764;SDS011;35657;51.204;-4.130;2023-04-07T10:47:33;5.90;;;2.15;;
49764;SDS011;35657;51.204;-4.130;2023-04-07T10:50:19;4.50;;;1.80;;
49764;SDS011;35657;51.204;-4.130;2023-04-07T10:52:47;7.45;;;1.50;;
49764;SDS011;35657;51.204;-4.130;2023-04-07T10:55:30;7.00;;;2.63;;
49764;SDS011;35657;51.204;-4.130;2023-04-07T11:03:31;2.97;;;1.60;;
49764;SDS011;35657;51.204;-4.130;2023-04-07T11:06:05;2.83;;;1.08;;
49764;SDS011;35657;51.204;-4.130;2023-04-07T11:08:42;3.60;;;0.93;;
49764;SDS011;35657;51.204;-4.130;2023-04-07T11:11:13;2.72;;;1.33;;
49764;SDS011;35657;51.204;-4.130;2023-04-07T11:13:40;6.82;;;1.88;;
49764;SDS011;35657;51.204;-4.130;2023-04-07T11:16:07;2.95;;;1.33;;
49764;SDS011;35657;51.204;-4.130;2023-04-07T11:18:32;2.72;;;1.17;;
49764;SDS011;35657;51.204;-4.130;2023-04-07T11:20:58;6.32;;;1.10;;
49764;SDS011;35657;51.204;-4.130;2023-04-07T11:23:24;7.03;;;1.45;;
49764;SDS011;35657;51.204;-4.130;2023-04-07T11:25:59;3.13;;;1.20;;
49764;SDS011;35657;51.204;-4.130;2023-04-07T11:28:26;5.78;;;1.63;;
49764;SDS011;35657;51.204;-4.130;2023-04-07T11:30:53;4.22;;;1.50;;
49764;SDS011;35657;51.204;-4.130;2023-04-07T11:33:21;3.88;;;1.02;;
49764;SDS011;35657;51.204;-4.130;2023-04-07T11:35:53;3.58;;;1.33;;
49764;SDS011;35657;51.204;-4.130;2023-04-07T11:40:51;3.78;;;1.27;;
49764;SDS011;35657;51.204;-4.130;2023-04-07T11:43:18;3.47;;;1.33;;
49764;SDS011;35657;51.204;-4.130;2023-04-07T11:45:45;3.22;;;1.20;;
49764;SDS011;35657;51.204;-4.130;2023-04-07T11:48:28;3.25;;;1.35;;
49764;SDS011;35657;51.204;-4.130;2023-04-07T11:50:54;9.23;;;1.50;;
49764;SDS011;35657;51.204;-4.130;2023-04-07T11:53:26;5.30;;;1.10;;
49764;SDS011;35657;51.204;-4.130;2023-04-07T11:56:05;4.25;;;1.85;;
49764;SDS011;35657;51.204;-4.130;2023-04-07T11:58:45;6.40;;;1.60;;
49764;SDS011;35657;51.204;-4.130;2023-04-07T12:01:20;5.15;;;1.30;;
49764;SDS011;35657;51.204;-4.130;2023-04-07T12:03:58;4.75;;;1.13;;
49764;SDS011;35657;51.204;-4.130;2023-04-07T12:08:58;4.20;;;0.98;;
49764;SDS011;35657;51.204;-4.130;2023-04-07T12:11:24;3.40;;;0.90;;
49764;SDS011;35657;51.204;-4.130;2023-04-07T12:13:50;3.55;;;0.88;;
49764;SDS011;35657;51.204;-4.130;2023-04-07T12:16:17;3.17;;;0.90;;
49764;SDS011;35657;51.204;-4.130;2023-04-07T12:18:43;2.03;;;1.23;;
49764;SDS011;35657;51.204;-4.130;2023-04-07T12:21:09;1.33;;;0.65;;
49764;SDS011;35657;51.204;-4.130;2023-04-07T12:23:34;5.07;;;0.88;;
49764;SDS011;35657;51.204;-4.130;2023-04-07T12:26:00;3.10;;;0.98;;
49764;SDS011;35657;51.204;-4.130;2023-04-07T12:28:26;2.72;;;0.70;;
49764;SDS011;35657;51.204;-4.130;2023-04-07T12:30:53;2.15;;;1.00;;
49764;SDS011;35657;51.204;-4.130;2023-04-07T12:33:19;0.82;;;0.60;;
49764;SDS011;35657;51.204;-4.130;2023-04-07T12:35:45;4.25;;;1.00;;
49764;SDS011;35657;51.204;-4.130;2023-04-07T12:38:11;1.98;;;1.00;;
49764;SDS011;35657;51.204;-4.130;2023-04-07T12:40:36;3.72;;;0.80;;
49764;SDS011;35657;51.204;-4.130;2023-04-07T12:43:03;2.58;;;0.75;;
49764;SDS011;35657;51.204;-4.130;2023-04-07T12:45:30;3.13;;;0.80;;
49764;SDS011;35657;51.204;-4.130;2023-04-07T12:47:56;2.65;;;0.80;;
49764;SDS011;35657;51.204;-4.130;2023-04-07T12:50:22;2.17;;;0.52;;
49764;SDS011;35657;51.204;-4.130;2023-04-07T12:52:49;3.17;;;0.68;;
49764;SDS011;35657;51.204;-4.130;2023-04-07T12:55:19;3.05;;;0.73;;
49764;SDS011;35657;51.204;-4.130;2023-04-07T12:57:45;3.33;;;0.73;;
49764;SDS011;35657;51.204;-4.130;2023-04-07T13:00:11;4.40;;;0.82;;
49764;SDS011;35657;51.204;-4.130;2023-04-07T13:02:38;2.65;;;0.60;;
49764;SDS011;35657;51.204;-4.130;2023-04-07T13:05:04;4.00;;;0.98;;
49764;SDS011;35657;51.204;-4.130;2023-04-07T13:07:30;1.40;;;0.80;;
49764;SDS011;35657;51.204;-4.130;2023-04-07T13:09:56;2.40;;;0.70;;
49764;SDS011;35657;51.204;-4.130;2023-04-07T13:12:22;3.20;;;0.70;;
49764;SDS011;35657;51.204;-4.130;2023-04-07T13:14:48;4.60;;;0.70;;
49764;SDS011;35657;51.204;-4.130;2023-04-07T13:17:13;2.13;;;0.60;;
49764;SDS011;35657;51.204;-4.130;2023-04-07T13:19:39;0.77;;;0.43;;
49764;SDS011;35657;51.204;-4.130;2023-04-07T13:22:05;2.95;;;0.70;;
49764;SDS011;35657;51.204;-4.130;2023-04-07T13:24:32;5.97;;;0.68;;
49764;SDS011;35657;51.204;-4.130;2023-04-07T13:26:57;2.75;;;0.43;;
49764;SDS011;35657;51.204;-4.130;2023-04-07T13:29:23;0.73;;;0.40;;
49764;SDS011;35657;51.204;-4.130;2023-04-07T13:31:49;2.20;;;0.70;;
49764;SDS011;35657;51.204;-4.130;2023-04-07T13:34:15;3.40;;;0.77;;
49764;SDS011;35657;51.204;-4.130;2023-04-07T13:36:41;0.55;;;0.30;;
49764;SDS011;35657;51.204;-4.130;2023-04-07T13:39:07;1.02;;;0.30;;
49764;SDS011;35657;51.204;-4.130;2023-04-07T13:41:33;4.30;;;0.77;;
49764;SDS011;35657;51.204;-4.130;2023-04-07T13:43:59;1.60;;;0.40;;
49764;SDS011;35657;51.204;-4.130;2023-04-07T13:46:25;1.77;;;0.52;;
49764;SDS011;35657;51.204;-4.130;2023-04-07T13:48:52;0.82;;;0.35;;
49764;SDS011;35657;51.204;-4.130;2023-04-07T13:51:17;0.98;;;0.40;;
49764;SDS011;35657;51.204;-4.130;2023-04-07T13:53:44;1.77;;;0.52;;
49764;SDS011;35657;51.204;-4.130;2023-04-07T13:56:10;2.13;;;0.40;;
49764;SDS011;35657;51.204;-4.130;2023-04-07T13:58:36;1.23;;;0.52;;
49764;SDS011;35657;51.204;-4.130;2023-04-07T14:01:02;0.45;;;0.30;;
49764;SDS011;35657;51.204;-4.130;2023-04-07T14:03:28;2.40;;;0.40;;
49764;SDS011;35657;51.204;-4.130;2023-04-07T14:05:54;1.00;;;0.35;;
49764;SDS011;35657;51.204;-4.130;2023-04-07T14:08:24;1.10;;;0.35;;
49764;SDS011;35657;51.204;-4.130;2023-04-07T14:10:50;2.15;;;0.30;;
49764;SDS011;35657;51.204;-4.130;2023-04-07T14:13:16;0.28;;;0.20;;
49764;SDS011;35657;51.204;-4.130;2023-04-07T14:15:42;4.57;;;0.70;;
49764;SDS011;35657;51.204;-4.130;2023-04-07T14:18:07;0.40;;;0.38;;
49764;SDS011;35657;51.204;-4.130;2023-04-07T14:20:33;2.58;;;0.60;;
49764;SDS011;35657;51.204;-4.130;2023-04-07T14:22:59;0.47;;;0.30;;
49764;SDS011;35657;51.204;-4.130;2023-04-07T14:25:25;1.45;;;0.30;;
49764;SDS011;35657;51.204;-4.130;2023-04-07T14:27:51;2.70;;;0.55;;
49764;SDS011;35657;51.204;-4.130;2023-04-07T14:30:17;1.10;;;0.45;;
49764;SDS011;35657;51.204;-4.130;2023-04-07T14:32:43;0.85;;;0.30;;
49764;SDS011;35657;51.204;-4.130;2023-04-07T14:35:09;0.65;;;0.20;;
49764;SDS011;35657;51.204;-4.130;2023-04-07T14:37:35;0.82;;;0.40;;
49764;SDS011;35657;51.204;-4.130;2023-04-07T14:40:03;0.93;;;0.30;;
49764;SDS011;35657;51.204;-4.130;2023-04-07T14:42:29;1.48;;;0.20;;
49764;SDS011;35657;51.204;-4.130;2023-04-07T14:44:56;0.73;;;0.32;;
49764;SDS011;35657;51.204;-4.130;2023-04-07T14:47:23;1.15;;;0.30;;
49764;SDS011;35657;51.204;-4.130;2023-04-07T14:49:49;0.22;;;0.20;;
49764;SDS011;35657;51.204;-4.130;2023-04-07T14:52:15;1.42;;;0.32;;
49764;SDS011;35657;51.204;-4.130;2023-04-07T14:54:41;0.55;;;0.40;;
49764;SDS011;35657;51.204;-4.130;2023-04-07T14:57:07;0.55;;;0.35;;
49764;SDS011;35657;51.204;-4.130;2023-04-07T14:59:33;1.55;;;0.52;;
49764;SDS011;35657;51.204;-4.130;2023-04-07T15:01:58;0.93;;;0.35;;
49764;SDS011;35657;51.204;-4.130;2023-04-07T15:04:24;0.60;;;0.35;;
49764;SDS011;35657;51.204;-4.130;2023-04-07T15:06:50;0.50;;;0.20;;
49764;SDS011;35657;51.204;-4.130;2023-04-07T15:09:15;0.57;;;0.20;;
49764;SDS011;35657;51.204;-4.130;2023-04-07T15:11:42;0.98;;;0.40;;
49764;SDS011;35657;51.204;-4.130;2023-04-07T15:14:10;0.85;;;0.50;;
49764;SDS011;35657;51.204;-4.130;2023-04-07T15:16:35;1.00;;;0.30;;